Trois-Rivières, Quebec

12:22 EST le 26 février 2017 (GMT -0500)
Cap-de-la-Madeleine | | Change Station

Alt. 170 ft 46.39 °N, 72.56 °W | Updated 3 minutes ago

Couvert
Couvert
25.9 ° F
Paraît 20 ° F
N
5.0
Vent Variable Vent de NO
Gusts 14.9 mph

Aujourd'hui
Haut(e) -- | Bas -- ° F
--% Risque de précip.
Hier
Haut(e) -- | Bas -- ° F
Precip. -- pouce
Pression 29.84 pouce
Visibilité 9.0 Miles terrestres
Nuages Couvert 3800 ft
Refroidissement éolien 20 ° F
Point de rosée 13 ° F
Humidité 59%
Précipitations 0.05 pouce
Profondeur de la couche neigeuse Non disponible.
6:34 AM 5:32 PM
Nouvelle lune, 0% visible
SPECI CYRQ 261715Z AUTO 27013G22KT 9SM -SN OVC038 M05/M11 A2982 RMK SLP104
Pression 29.84 pouce
Visibilité 9.0 Miles terrestres
Nuages Couvert 3800 ft
Refroidissement éolien 20 ° F
Point de rosée 13 ° F
Humidité 59%
Précipitations 0.05 pouce
Profondeur de la couche neigeuse Non disponible.
6:34 AM 5:32 PM
Nouvelle lune, 0% visible
SPECI CYRQ 261715Z AUTO 27013G22KT 9SM -SN OVC038 M05/M11 A2982 RMK SLP104

Get Your Daily Forecast Email!

Thanks for signing up!

Be on the lookout for a verification email in your inbox.

You'll start receiving the daily forecast at 8 AM.

×

10-Day Weather Forecast

Almanac

Astronomie

Feb. 26, 2017 Lever Coucher
Temps réel
Crépuscule civil
Crépuscule nautique
Crépuscule astronomique
Lune
Durée de lumière visible
Longueur du jour
Tomorrow will be .
, % of the Moon is Illuminated

Extrêmes aujourd'hui

Country Highs Country Lows

Community

WunderPhotos

Upload Photos

1,962,540 Photos téléchargées !

WunderBlog® & News

Nearby

Qualité de l'air

  Qualité de l'air Indice de la qualité de l'air Polluant
Not available.

Épaisseur de neige

Station Depth Altitude

Activité sismique

Ville Distance Mag. Time & Date
Minimum magnitude displayed is 2.5.

Températures des eaux côtières

Lieu Température

Stations

Stations météo à proximité

Emplacement de la station Température Refroidissement éolien Point de rosée Humidité Vent Precip. Alt. Mise à jour Type
                   

Watches & Warnings

There are currently no watches in effect.